Time;durP1;ratioP1;P1;durP2;ratioP2;P2;SDS_P1;SDS_P2;PMS_P1;PMS_P2;Temp;Humidity;BMP_temperature;BMP_pressure;BME280_temperature;BME280_humidity;BME280_pressure;Samples;Min_cycle;Max_cycle;Signal;HPM_P1;HPM_P2
2023/10/27 00:15:33;;;;;;;3.73;1.60;;;;;;;;;;4842072;29;20204;-87
2023/10/27 00:20:09;;;;;;;2.97;1.60;;;;;;;;;;4887461;23;20232;-86
2023/10/27 01:55:36;;;;;;;7.87;2.80;;;;;;;;;;4884014;29;20549;-86
2023/10/27 02:00:07;;;;;;;6.87;2.30;;;;;;;;;;4843570;29;20207;-86
2023/10/27 02:25:33;;;;;;;6.67;2.90;;;;;;;;;;4883236;29;20221;-85
2023/10/27 06:07:17;;;;;;;;;;;;;;;;;;;;;
2023/10/27 06:11:58;;;;;;;5.53;3.67;;;;;;;;;;4867008;29;20191;-86
2023/10/27 06:22:44;;;;;;;;;;;;;;;;;;;;;
2023/10/27 06:26:08;;;;;;;5.17;3.40;;;;;;;;;;4846082;29;20187;-86
2023/10/27 06:29:38;;;;;;;5.53;3.07;;;;;;;;;;4833601;29;20215;-87
2023/10/27 06:37:58;;;;;;;5.50;3.90;;;;;;;;;;4825669;29;20203;-86
2023/10/27 06:41:17;;;;;;;5.17;3.53;;;;;;;;;;4825002;29;20208;-86
2023/10/27 06:44:23;;;;;;;5.60;4.30;;;;;;;;;;4824103;29;20184;-86
2023/10/27 06:47:27;;;;;;;7.00;4.10;;;;;;;;;;4852141;29;20195;-86
2023/10/27 06:50:34;;;;;;;5.90;3.60;;;;;;;;;;4852361;29;20565;-86
2023/10/27 06:53:40;;;;;;;8.87;3.70;;;;;;;;;;4852789;29;20179;-86
2023/10/27 06:56:55;;;;;;;4.77;3.27;;;;;;;;;;4852074;29;20195;-86
2023/10/27 07:00:04;;;;;;;5.97;3.97;;;;;;;;;;4862396;29;20589;-86
2023/10/27 07:07:35;;;;;;;5.93;3.60;;;;;;;;;;4851435;29;20214;-87
2023/10/27 07:10:43;;;;;;;5.43;3.50;;;;;;;;;;4850936;29;20534;-87
2023/10/27 07:13:47;;;;;;;5.23;4.17;;;;;;;;;;4851081;29;20183;-87
2023/10/27 07:16:52;;;;;;;5.27;4.37;;;;;;;;;;4840496;29;20191;-87
2023/10/27 07:19:56;;;;;;;6.33;4.80;;;;;;;;;;4850765;29;20218;-87
2023/10/27 07:23:00;;;;;;;5.57;5.00;;;;;;;;;;4850749;29;20203;-87
2023/10/27 07:26:15;;;;;;;6.00;5.30;;;;;;;;;;4850795;29;20191;-87
2023/10/27 07:29:19;;;;;;;5.83;4.50;;;;;;;;;;4840450;29;20219;-87
2023/10/27 07:32:23;;;;;;;6.77;5.20;;;;;;;;;;4839683;29;20183;-87
2023/10/27 07:35:27;;;;;;;6.90;5.20;;;;;;;;;;4840342;29;20195;-87
2023/10/27 07:38:34;;;;;;;7.90;5.63;;;;;;;;;;4850755;29;20218;-87
2023/10/27 07:41:41;;;;;;;14.63;5.37;;;;;;;;;;4840753;29;20187;-87
2023/10/27 07:44:45;;;;;;;9.60;5.40;;;;;;;;;;4861335;29;20525;-87
2023/10/27 07:47:49;;;;;;;8.47;4.97;;;;;;;;;;4861100;29;20190;-87
2023/10/27 07:50:56;;;;;;;9.20;4.33;;;;;;;;;;4840171;29;20633;-87
2023/10/27 07:54:07;;;;;;;6.07;3.60;;;;;;;;;;4840318;29;20187;-87
2023/10/27 07:57:13;;;;;;;16.60;3.73;;;;;;;;;;4850499;29;20214;-87
2023/10/27 08:00:18;;;;;;;8.67;3.03;;;;;;;;;;4839859;29;20227;-87
2023/10/27 08:04:18;;;;;;;6.80;2.70;;;;;;;;;;4843995;29;20222;-87
2023/10/27 08:07:22;;;;;;;9.77;8.27;;;;;;;;;;4850156;29;20648;-87
2023/10/27 08:10:32;;;;;;;11.50;10.03;;;;;;;;;;4850056;29;20218;-87
2023/10/27 08:22:26;;;;;;;10.63;9.57;;;;;;;;;;4846689;29;20198;-87
2023/10/27 08:29:55;;;;;;;6.00;4.43;;;;;;;;;;4840362;29;20214;-87
2023/10/27 08:32:59;;;;;;;2.97;2.50;;;;;;;;;;4840346;29;20187;-87
2023/10/27 08:36:04;;;;;;;5.20;2.00;;;;;;;;;;4850925;29;20534;-87
2023/10/27 08:44:21;;;;;;;5.30;2.20;;;;;;;;;;4869149;29;20221;-87
2023/10/27 08:47:30;;;;;;;3.93;2.67;;;;;;;;;;4844049;29;20389;-88
2023/10/27 08:50:37;;;;;;;5.80;2.67;;;;;;;;;;4833583;29;20183;-87
2023/10/27 08:53:42;;;;;;;1.60;1.50;;;;;;;;;;4853979;29;20182;-87
2023/10/27 08:56:47;;;;;;;5.30;2.10;;;;;;;;;;4843285;29;20649;-87
2023/10/27 08:59:51;;;;;;;1.83;1.47;;;;;;;;;;4853440;29;20218;-87
2023/10/27 09:02:55;;;;;;;4.63;1.60;;;;;;;;;;4854311;29;20210;-87
2023/10/27 09:05:59;;;;;;;2.07;1.57;;;;;;;;;;4853978;29;20203;-87
2023/10/27 09:09:06;;;;;;;2.50;1.60;;;;;;;;;;4842882;29;20226;-87
2023/10/27 09:12:11;;;;;;;2.47;1.50;;;;;;;;;;4832561;29;20183;-87
2023/10/27 09:15:15;;;;;;;1.57;1.43;;;;;;;;;;4853481;29;20175;-87
2023/10/27 09:18:36;;;;;;;2.43;1.20;;;;;;;;;;4843006;29;20191;-88
2023/10/27 09:21:42;;;;;;;3.10;1.33;;;;;;;;;;4864261;29;20641;-87
2023/10/27 09:24:49;;;;;;;1.87;1.20;;;;;;;;;;4832240;29;20211;-88
2023/10/27 09:27:53;;;;;;;1.33;0.90;;;;;;;;;;4832045;29;20191;-87
2023/10/27 09:30:57;;;;;;;1.73;1.00;;;;;;;;;;4853154;29;20195;-88
2023/10/27 09:34:18;;;;;;;3.20;1.23;;;;;;;;;;4853668;29;20525;-87
2023/10/27 09:37:23;;;;;;;1.10;0.90;;;;;;;;;;4864575;29;20217;-87
2023/10/27 09:41:18;;;;;;;0.70;0.70;;;;;;;;;;4842138;29;20222;-86
2023/10/27 09:45:11;;;;;;;1.47;0.93;;;;;;;;;;4827543;29;20204;-87
2023/10/27 10:18:55;;;;;;;0.40;0.40;;;;;;;;;;4899820;29;20234;-84
2023/10/27 10:22:00;;;;;;;0.77;0.40;;;;;;;;;;4889717;29;20288;-85
2023/10/27 10:25:35;;;;;;;0.57;0.50;;;;;;;;;;4879506;29;20563;-84
2023/10/27 10:28:41;;;;;;;0.77;0.30;;;;;;;;;;4891377;29;20213;-84
2023/10/27 11:39:23;;;;;;;1.83;0.50;;;;;;;;;;4906506;29;20229;-85
2023/10/27 11:42:27;;;;;;;1.50;0.60;;;;;;;;;;4896270;29;20190;-85
2023/10/27 11:45:31;;;;;;;0.93;0.60;;;;;;;;;;4907664;29;20209;-85
2023/10/27 11:48:36;;;;;;;0.90;0.60;;;;;;;;;;4885317;29;20221;-86
2023/10/27 12:57:06;;;;;;;1.20;0.80;;;;;;;;;;4912140;29;20182;-88
2023/10/27 13:16:58;;;;;;;4.13;1.47;;;;;;;;;;4887011;29;20183;-87
2023/10/27 14:07:18;;;;;;;2.47;0.90;;;;;;;;;;4905722;29;20190;-87
2023/10/27 14:12:07;;;;;;;2.33;1.00;;;;;;;;;;4830340;29;20212;-87
2023/10/27 14:17:07;;;;;;;4.20;0.87;;;;;;;;;;4857256;29;20211;-87
